Accueil
METAR-TAF:

METAR-TAF

Aéroports :

Mae Sot, Thaïlande

latitude: 16-40N, longitude: 098-33E, altitude: 196 m

Observation

Le bulletin a été fait il y a 55 minutes, à 10:00 UTC
Vent 12 kt de ouest/sud-ouest
Température 32°C
Humidité 52%
Pression 1005 hPa
Visibilité 10 km ou plus
Quelques nuages à une hauteur de 3000 ft

METAR: VTPM 031000Z 25012KT 9999 FEW030 32/21 Q1005 NOSIG

Heure: 17:55 (10:55 UTC)

Prévision

Le bulletin a été fait il y a 5 heures et 55 minutes, à 05:00 UTC
Prévision valable du 03 à 06 UTC au 04 à 06 UTC
Vent 5 kt de ouest
Visibilité 10 km ou plus
Nuages épars à une hauteur de 3000 ft
Temporairement
du 03 à 07 UTC au 03 à 12 UTC
Vent 15 kt de ouest/sud-ouest avec des rafales jusqu'à 25 kt
Visibilité: 4000 m
Quelques nuages à une hauteur de 2000 ft, Cumulonimbus.
Nuages fragmentés à une hauteur de 2500 ft
orage, pluie

TAF: VTPM 030500Z 0306/0406 26005KT 9999 SCT030 TEMPO 0307/0312 24015G25KT 4000 TSRA FEW020CB BKN025

Observations et prévisions météorologiques de plus de 4000 aéroports (messages METAR et TAF).

Les stations disponibles sont représentées par des disques jaunes et rouges sur la carte.

Passer la souris dessus pour voir le nom de la station.

Cliquer dessus pour voir les observations et prévisions météorologiques.

Pour changer de carte: cliquez sur les boutons verts avec une croix noire pour zoomer, sur le bouton vert avec un tiret pour effectuer un zoom arrière, ou sur les flèches vertes pour les cartes adjacentes.


METAR-TAF: